sensor_id;sensor_type;location;lat;lon;timestamp;pressure;altitude;pressure_sealevel;temperature;humidity
55664;BME280;41540;57.880;12.164;2022-12-07T00:05:12;99844.28;;;-5.52;100.00
55664;BME280;41540;57.880;12.164;2022-12-07T00:15:13;99856.41;;;-5.34;100.00
55664;BME280;41540;57.880;12.164;2022-12-07T00:25:13;99794.81;;;-5.73;100.00
55664;BME280;41540;57.880;12.164;2022-12-07T00:35:13;99783.19;;;-5.83;100.00
55664;BME280;41540;57.880;12.164;2022-12-07T00:45:14;99778.28;;;-5.81;100.00
55664;BME280;41540;57.880;12.164;2022-12-07T00:55:15;99865.59;;;-5.23;100.00
55664;BME280;41540;57.880;12.164;2022-12-07T01:05:16;99782.38;;;-5.58;100.00
55664;BME280;41540;57.880;12.164;2022-12-07T01:15:16;99787.84;;;-5.40;100.00
55664;BME280;41540;57.880;12.164;2022-12-07T01:25:16;99829.91;;;-5.16;100.00
55664;BME280;41540;57.880;12.164;2022-12-07T01:35:17;99850.97;;;-4.90;100.00
55664;BME280;41540;57.880;12.164;2022-12-07T01:55:18;99681.31;;;-5.85;100.00
55664;BME280;41540;57.880;12.164;2022-12-07T02:05:19;99770.81;;;-5.43;100.00
55664;BME280;41540;57.880;12.164;2022-12-07T02:15:21;99790.19;;;-5.30;100.00
55664;BME280;41540;57.880;12.164;2022-12-07T02:25:58;99809.94;;;-4.99;100.00
55664;BME280;41540;57.880;12.164;2022-12-07T02:36:12;99797.00;;;-5.04;100.00
55664;BME280;41540;57.880;12.164;2022-12-07T02:46:20;99826.38;;;-4.67;100.00
55664;BME280;41540;57.880;12.164;2022-12-07T02:56:34;99819.03;;;-4.51;100.00
55664;BME280;41540;57.880;12.164;2022-12-07T03:06:43;99728.47;;;-4.83;100.00
55664;BME280;41540;57.880;12.164;2022-12-07T03:17:09;99821.59;;;-4.11;100.00
55664;BME280;41540;57.880;12.164;2022-12-07T03:27:16;99811.78;;;-3.93;100.00
55664;BME280;41540;57.880;12.164;2022-12-07T03:37:28;99657.88;;;-4.67;100.00
55664;BME280;41540;57.880;12.164;2022-12-07T03:47:41;99735.09;;;-4.05;100.00
55664;BME280;41540;57.880;12.164;2022-12-07T03:57:47;99780.69;;;-3.64;100.00
55664;BME280;41540;57.880;12.164;2022-12-07T04:07:49;99701.09;;;-3.96;100.00
55664;BME280;41540;57.880;12.164;2022-12-07T04:17:50;99729.28;;;-3.63;100.00
55664;BME280;41540;57.880;12.164;2022-12-07T04:27:50;99676.72;;;-3.80;100.00
55664;BME280;41540;57.880;12.164;2022-12-07T04:37:51;99622.38;;;-4.00;100.00
55664;BME280;41540;57.880;12.164;2022-12-07T04:47:51;99707.31;;;-3.49;100.00
55664;BME280;41540;57.880;12.164;2022-12-07T04:57:51;99588.38;;;-4.19;100.00
55664;BME280;41540;57.880;12.164;2022-12-07T05:07:52;99587.22;;;-4.24;100.00
55664;BME280;41540;57.880;12.164;2022-12-07T05:17:52;99735.19;;;-3.34;100.00
55664;BME280;41540;57.880;12.164;2022-12-07T05:27:54;99660.91;;;-3.63;100.00
55664;BME280;41540;57.880;12.164;2022-12-07T05:37:55;99700.84;;;-3.44;100.00
55664;BME280;41540;57.880;12.164;2022-12-07T05:47:57;99623.56;;;-3.80;100.00
55664;BME280;41540;57.880;12.164;2022-12-07T05:57:57;99631.56;;;-3.74;100.00
55664;BME280;41540;57.880;12.164;2022-12-07T06:08:16;99691.84;;;-3.39;100.00
55664;BME280;41540;57.880;12.164;2022-12-07T06:18:16;99700.97;;;-3.27;100.00
55664;BME280;41540;57.880;12.164;2022-12-07T06:28:16;99569.34;;;-3.99;100.00
55664;BME280;41540;57.880;12.164;2022-12-07T06:38:17;99564.34;;;-3.97;100.00
55664;BME280;41540;57.880;12.164;2022-12-07T06:48:17;99638.47;;;-3.57;100.00
55664;BME280;41540;57.880;12.164;2022-12-07T06:58:18;99613.91;;;-3.73;100.00
55664;BME280;41540;57.880;12.164;2022-12-07T07:08:18;99625.94;;;-3.83;100.00
55664;BME280;41540;57.880;12.164;2022-12-07T07:18:18;99700.50;;;-3.35;100.00
55664;BME280;41540;57.880;12.164;2022-12-07T07:28:19;99677.78;;;-3.48;100.00
55664;BME280;41540;57.880;12.164;2022-12-07T07:38:19;99615.00;;;-3.82;100.00
55664;BME280;41540;57.880;12.164;2022-12-07T07:48:20;99600.06;;;-3.93;100.00
55664;BME280;41540;57.880;12.164;2022-12-07T07:58:22;99701.22;;;-3.38;100.00
55664;BME280;41540;57.880;12.164;2022-12-07T08:08:23;99668.88;;;-3.57;100.00
55664;BME280;41540;57.880;12.164;2022-12-07T08:18:23;99634.41;;;-3.83;100.00
55664;BME280;41540;57.880;12.164;2022-12-07T08:28:23;99734.50;;;-3.31;100.00
55664;BME280;41540;57.880;12.164;2022-12-07T08:38:24;99692.59;;;-3.83;100.00
55664;BME280;41540;57.880;12.164;2022-12-07T08:48:25;99721.50;;;-3.79;100.00
55664;BME280;41540;57.880;12.164;2022-12-07T08:58:26;99645.53;;;-4.36;100.00
55664;BME280;41540;57.880;12.164;2022-12-07T09:08:31;99612.66;;;-4.36;100.00
55664;BME280;41540;57.880;12.164;2022-12-07T09:18:33;99758.63;;;-3.23;100.00
55664;BME280;41540;57.880;12.164;2022-12-07T09:28:33;99706.38;;;-3.36;100.00
55664;BME280;41540;57.880;12.164;2022-12-07T09:38:34;99627.00;;;-3.65;100.00
55664;BME280;41540;57.880;12.164;2022-12-07T09:48:37;99620.84;;;-3.55;100.00
55664;BME280;41540;57.880;12.164;2022-12-07T09:58:39;99683.94;;;-3.15;100.00
55664;BME280;41540;57.880;12.164;2022-12-07T10:08:39;99707.13;;;-2.79;100.00
55664;BME280;41540;57.880;12.164;2022-12-07T10:18:41;99744.97;;;-2.67;100.00
55664;BME280;41540;57.880;12.164;2022-12-07T10:28:42;99714.41;;;-2.85;100.00
55664;BME280;41540;57.880;12.164;2022-12-07T10:38:48;99731.94;;;-3.03;100.00
55664;BME280;41540;57.880;12.164;2022-12-07T10:49:02;99729.78;;;-3.40;100.00
55664;BME280;41540;57.880;12.164;2022-12-07T11:30:12;99693.34;;;-4.25;100.00
55664;BME280;41540;57.880;12.164;2022-12-07T11:40:34;99608.03;;;-5.10;100.00
55664;BME280;41540;57.880;12.164;2022-12-07T11:50:59;99653.13;;;-4.89;100.00
55664;BME280;41540;57.880;12.164;2022-12-07T12:21:37;99609.06;;;-5.33;100.00
55664;BME280;41540;57.880;12.164;2022-12-07T12:31:39;99609.84;;;-5.34;100.00
55664;BME280;41540;57.880;12.164;2022-12-07T13:02:35;99642.94;;;-5.42;100.00
55664;BME280;41540;57.880;12.164;2022-12-07T13:12:37;99684.94;;;-4.66;100.00
55664;BME280;41540;57.880;12.164;2022-12-07T13:22:41;99650.63;;;-4.76;100.00
55664;BME280;41540;57.880;12.164;2022-12-07T13:32:43;99580.13;;;-5.24;100.00
55664;BME280;41540;57.880;12.164;2022-12-07T13:43:02;99537.88;;;-5.92;100.00
55664;BME280;41540;57.880;12.164;2022-12-07T13:53:13;99674.09;;;-5.42;100.00
55664;BME280;41540;57.880;12.164;2022-12-07T14:13:31;99589.63;;;-6.48;100.00
55664;BME280;41540;57.880;12.164;2022-12-07T14:23:32;99642.00;;;-6.43;100.00
55664;BME280;41540;57.880;12.164;2022-12-07T14:33:32;99619.25;;;-6.92;100.00
55664;BME280;41540;57.880;12.164;2022-12-07T14:43:33;99583.00;;;-7.41;100.00
55664;BME280;41540;57.880;12.164;2022-12-07T14:53:35;99585.50;;;-7.53;100.00
55664;BME280;41540;57.880;12.164;2022-12-07T15:03:37;99485.47;;;-8.37;100.00
55664;BME280;41540;57.880;12.164;2022-12-07T15:13:38;99547.94;;;-8.08;100.00
55664;BME280;41540;57.880;12.164;2022-12-07T15:23:57;99608.00;;;-8.00;100.00
55664;BME280;41540;57.880;12.164;2022-12-07T15:33:58;99528.63;;;-8.43;100.00
55664;BME280;41540;57.880;12.164;2022-12-07T15:43:58;99622.13;;;-8.13;100.00
55664;BME280;41540;57.880;12.164;2022-12-07T15:54:22;99571.25;;;-8.54;100.00
55664;BME280;41540;57.880;12.164;2022-12-07T16:04:23;99660.47;;;-8.15;100.00
55664;BME280;41540;57.880;12.164;2022-12-07T16:14:23;99615.56;;;-8.45;100.00
55664;BME280;41540;57.880;12.164;2022-12-07T16:24:24;99519.53;;;-9.07;100.00
55664;BME280;41540;57.880;12.164;2022-12-07T16:34:24;99567.66;;;-8.90;100.00
55664;BME280;41540;57.880;12.164;2022-12-07T16:44:24;99537.63;;;-9.11;100.00
55664;BME280;41540;57.880;12.164;2022-12-07T16:54:25;99528.47;;;-9.21;100.00
55664;BME280;41540;57.880;12.164;2022-12-07T17:04:25;99498.75;;;-9.26;100.00
55664;BME280;41540;57.880;12.164;2022-12-07T17:14:26;99583.63;;;-9.00;100.00
55664;BME280;41540;57.880;12.164;2022-12-07T17:24:45;99598.28;;;-8.84;100.00
55664;BME280;41540;57.880;12.164;2022-12-07T17:34:45;99533.16;;;-9.25;100.00
55664;BME280;41540;57.880;12.164;2022-12-07T17:44:45;99492.13;;;-9.68;100.00
55664;BME280;41540;57.880;12.164;2022-12-07T17:54:46;99536.94;;;-9.41;100.00
55664;BME280;41540;57.880;12.164;2022-12-07T18:04:46;99519.91;;;-9.55;100.00
55664;BME280;41540;57.880;12.164;2022-12-07T18:14:46;99546.38;;;-9.48;100.00
55664;BME280;41540;57.880;12.164;2022-12-07T18:24:49;99554.91;;;-9.56;100.00
55664;BME280;41540;57.880;12.164;2022-12-07T18:34:50;99503.94;;;-10.08;100.00
55664;BME280;41540;57.880;12.164;2022-12-07T18:44:50;99494.78;;;-10.18;100.00
55664;BME280;41540;57.880;12.164;2022-12-07T18:54:50;99347.81;;;-11.11;100.00
55664;BME280;41540;57.880;12.164;2022-12-07T19:04:51;99504.06;;;-10.07;100.00
55664;BME280;41540;57.880;12.164;2022-12-07T19:14:51;99517.47;;;-10.16;100.00
55664;BME280;41540;57.880;12.164;2022-12-07T19:24:54;99410.78;;;-10.76;100.00
55664;BME280;41540;57.880;12.164;2022-12-07T19:34:54;99480.66;;;-10.38;100.00
55664;BME280;41540;57.880;12.164;2022-12-07T19:44:55;99516.22;;;-10.22;100.00
55664;BME280;41540;57.880;12.164;2022-12-07T19:54:55;99426.66;;;-10.75;100.00
55664;BME280;41540;57.880;12.164;2022-12-07T20:04:56;99477.13;;;-10.61;100.00
55664;BME280;41540;57.880;12.164;2022-12-07T20:14:56;99428.88;;;-10.99;100.00
55664;BME280;41540;57.880;12.164;2022-12-07T20:24:58;99391.03;;;-11.33;100.00
55664;BME280;41540;57.880;12.164;2022-12-07T20:34:58;99448.53;;;-11.04;100.00
55664;BME280;41540;57.880;12.164;2022-12-07T20:44:58;99495.31;;;-11.03;100.00
55664;BME280;41540;57.880;12.164;2022-12-07T20:54:59;99370.97;;;-11.93;100.00
55664;BME280;41540;57.880;12.164;2022-12-07T21:04:59;99353.66;;;-12.10;100.00
55664;BME280;41540;57.880;12.164;2022-12-07T21:15:00;99419.00;;;-11.77;100.00
55664;BME280;41540;57.880;12.164;2022-12-07T21:25:00;99482.41;;;-11.66;100.00
55664;BME280;41540;57.880;12.164;2022-12-07T21:35:00;99405.09;;;-12.12;100.00
55664;BME280;41540;57.880;12.164;2022-12-07T21:45:00;99403.06;;;-11.98;100.00
55664;BME280;41540;57.880;12.164;2022-12-07T21:55:01;99466.81;;;-11.82;100.00
55664;BME280;41540;57.880;12.164;2022-12-07T22:05:01;99446.66;;;-11.94;100.00
55664;BME280;41540;57.880;12.164;2022-12-07T22:15:02;99352.59;;;-12.42;100.00
55664;BME280;41540;57.880;12.164;2022-12-07T22:25:06;99347.00;;;-12.39;100.00
55664;BME280;41540;57.880;12.164;2022-12-07T22:35:06;99150.19;;;-13.60;100.00
55664;BME280;41540;57.880;12.164;2022-12-07T22:45:07;99420.00;;;-12.04;100.00
55664;BME280;41540;57.880;12.164;2022-12-07T22:55:08;99355.78;;;-12.34;100.00
55664;BME280;41540;57.880;12.164;2022-12-07T23:05:11;99313.41;;;-12.62;100.00
55664;BME280;41540;57.880;12.164;2022-12-07T23:15:11;99448.31;;;-11.84;100.00
55664;BME280;41540;57.880;12.164;2022-12-07T23:25:11;99353.53;;;-12.31;100.00
55664;BME280;41540;57.880;12.164;2022-12-07T23:35:12;99259.84;;;-12.65;100.00
55664;BME280;41540;57.880;12.164;2022-12-07T23:45:12;99279.63;;;-12.29;100.00
55664;BME280;41540;57.880;12.164;2022-12-07T23:55:12;99352.31;;;-11.67;100.00
